createdAt,value
2018-10-12T00:00:44.942Z,16.87
2018-10-12T00:03:13.830Z,11.77
2018-10-12T00:05:42.688Z,14.27
2018-10-12T00:08:10.929Z,32.03
2018-10-12T00:10:39.348Z,20.70
2018-10-12T00:13:07.855Z,17.00
2018-10-12T00:15:36.655Z,19.80
2018-10-12T00:18:05.494Z,20.53
2018-10-12T00:20:33.752Z,16.97
2018-10-12T00:23:02.572Z,14.90
2018-10-12T00:25:31.182Z,16.20
2018-10-12T00:27:59.485Z,12.07
2018-10-12T00:30:28.004Z,18.23
2018-10-12T00:32:56.949Z,17.17
2018-10-12T00:35:25.527Z,14.27
2018-10-12T00:37:53.541Z,14.73
2018-10-12T00:40:22.022Z,16.50
2018-10-12T00:42:50.979Z,13.60
2018-10-12T00:45:19.035Z,14.77
2018-10-12T00:47:51.992Z,20.23
2018-10-12T00:50:20.026Z,15.63
2018-10-12T00:52:48.209Z,16.37
2018-10-12T00:55:16.476Z,17.97
2018-10-12T00:57:44.890Z,19.57
2018-10-12T01:00:14.019Z,13.90
2018-10-12T01:02:42.785Z,13.70
2018-10-12T01:05:11.643Z,14.40
2018-10-12T01:07:39.843Z,8.30
2018-10-12T01:10:08.965Z,14.03
2018-10-12T01:12:37.895Z,11.43
2018-10-12T01:15:06.910Z,13.10
2018-10-12T01:17:36.136Z,9.77
2018-10-12T01:20:04.815Z,8.93
2018-10-12T01:22:33.279Z,14.93
2018-10-12T01:25:03.066Z,11.60
2018-10-12T01:27:31.593Z,11.47
2018-10-12T01:29:59.667Z,10.80
2018-10-12T01:32:40.299Z,10.17
2018-10-12T01:35:08.621Z,8.33
2018-10-12T01:37:37.106Z,10.83
2018-10-12T01:40:05.800Z,12.73
2018-10-12T01:42:34.495Z,8.10
2018-10-12T01:45:03.028Z,8.10
2018-10-12T01:47:31.409Z,15.90
2018-10-12T01:49:59.754Z,12.03
2018-10-12T01:52:27.808Z,11.10
2018-10-12T01:54:55.979Z,13.60
2018-10-12T01:57:24.023Z,9.90
2018-10-12T01:59:52.030Z,16.93
2018-10-12T02:02:20.269Z,13.17
2018-10-12T02:04:48.359Z,13.73
2018-10-12T02:07:16.746Z,15.43
2018-10-12T02:09:45.047Z,18.10
2018-10-12T02:12:13.257Z,15.00
2018-10-12T02:14:41.569Z,11.20
2018-10-12T02:17:10.216Z,9.73
2018-10-12T02:19:38.828Z,11.03
2018-10-12T02:22:08.577Z,40.00
2018-10-12T02:24:37.297Z,22.53
2018-10-12T02:27:06.793Z,21.10
2018-10-12T02:29:35.886Z,17.43
2018-10-12T02:32:04.314Z,10.20
2018-10-12T02:34:32.656Z,15.27
2018-10-12T02:37:01.015Z,9.80
2018-10-12T02:39:29.097Z,10.90
2018-10-12T02:41:57.284Z,11.73
2018-10-12T02:44:25.283Z,19.20
2018-10-12T02:46:53.300Z,9.43
2018-10-12T02:49:21.354Z,9.73
2018-10-12T02:51:49.544Z,14.70
2018-10-12T02:54:17.618Z,11.43
2018-10-12T02:56:45.902Z,10.17
2018-10-12T02:59:14.062Z,8.43
2018-10-12T03:01:43.316Z,6.47
2018-10-12T03:04:11.734Z,6.73
2018-10-12T03:06:40.090Z,8.33
2018-10-12T03:09:09.029Z,10.73
2018-10-12T03:11:37.486Z,8.40
2018-10-12T03:14:05.955Z,10.20
2018-10-12T03:16:34.509Z,10.23
2018-10-12T03:19:02.958Z,9.30
2018-10-12T03:21:31.058Z,7.70
2018-10-12T03:23:59.108Z,8.43
2018-10-12T03:26:27.297Z,6.70
2018-10-12T03:28:55.353Z,9.07
2018-10-12T03:31:23.573Z,9.53
2018-10-12T03:33:51.753Z,8.50
2018-10-12T03:36:20.232Z,10.80
2018-10-12T03:38:48.547Z,12.67
2018-10-12T03:41:16.878Z,9.23
2018-10-12T03:43:45.160Z,7.50
2018-10-12T03:46:13.495Z,8.90
2018-10-12T03:48:42.303Z,9.60
2018-10-12T03:51:10.647Z,8.03
2018-10-12T03:53:39.193Z,10.00
2018-10-12T03:56:08.126Z,12.07
2018-10-12T03:58:36.946Z,14.80
2018-10-12T04:01:05.647Z,12.53
2018-10-12T04:03:34.385Z,9.50
2018-10-12T04:06:02.771Z,9.03
2018-10-12T04:08:32.394Z,17.80
2018-10-12T04:11:00.965Z,10.67
2018-10-12T04:13:29.275Z,25.50
2018-10-12T04:15:57.306Z,12.27
2018-10-12T04:18:25.496Z,11.60
2018-10-12T04:20:53.518Z,10.70
2018-10-12T04:23:21.583Z,8.80
2018-10-12T04:25:49.698Z,9.97
2018-10-12T04:28:17.882Z,10.67
2018-10-12T04:30:46.432Z,10.70
2018-10-12T04:33:15.814Z,8.93
2018-10-12T04:35:44.330Z,10.07
2018-10-12T04:38:13.456Z,10.37
2018-10-12T04:40:58.239Z,9.03
2018-10-12T04:43:29.482Z,12.63
2018-10-12T04:45:57.719Z,11.37
2018-10-12T04:48:25.890Z,10.30
2018-10-12T04:50:55.766Z,10.67
2018-10-12T04:53:23.937Z,10.60
2018-10-12T04:55:52.146Z,9.17
2018-10-12T04:58:20.303Z,20.20
2018-10-12T05:00:48.364Z,14.07
2018-10-12T05:03:17.900Z,16.33
2018-10-12T05:05:46.862Z,18.17
2018-10-12T05:08:15.867Z,13.80
2018-10-12T05:10:44.695Z,48.27
2018-10-12T05:13:13.017Z,12.67
2018-10-12T05:15:42.652Z,17.70
2018-10-12T05:18:12.940Z,10.40
2018-10-12T05:20:44.422Z,7.33
2018-10-12T05:23:13.213Z,9.47
2018-10-12T05:25:42.770Z,14.00
2018-10-12T05:28:11.734Z,19.50
2018-10-12T05:30:40.467Z,17.00
2018-10-12T05:33:09.034Z,12.37
2018-10-12T05:35:38.908Z,23.10
2018-10-12T05:38:08.598Z,10.67
2018-10-12T05:40:39.908Z,11.17
2018-10-12T05:43:10.544Z,11.10
2018-10-12T05:45:39.626Z,14.00
2018-10-12T05:48:15.296Z,13.07
2018-10-12T05:50:44.014Z,12.23
2018-10-12T05:53:13.139Z,16.00
2018-10-12T05:55:42.065Z,13.70
2018-10-12T05:58:14.722Z,14.80
2018-10-12T06:00:43.702Z,11.47
2018-10-12T06:03:17.421Z,10.70
2018-10-12T06:05:46.977Z,13.60
2018-10-12T06:08:27.455Z,16.70
2018-10-12T06:10:56.041Z,15.70
2018-10-12T06:13:24.399Z,14.37
2018-10-12T06:15:53.673Z,11.70
2018-10-12T06:18:23.087Z,13.07
2018-10-12T06:20:51.322Z,16.97
2018-10-12T06:23:19.683Z,14.83
2018-10-12T06:25:47.937Z,10.90
2018-10-12T06:28:16.332Z,9.20
2018-10-12T06:30:45.532Z,10.00
2018-10-12T06:33:14.185Z,8.57
2018-10-12T06:35:42.923Z,17.23
2018-10-12T06:38:23.133Z,13.17
2018-10-12T06:40:51.346Z,17.67
2018-10-12T06:43:19.576Z,21.17
2018-10-12T06:45:47.932Z,13.97
2018-10-12T06:48:18.916Z,11.67
2018-10-12T06:50:47.140Z,11.93
2018-10-12T06:53:15.680Z,11.63
2018-10-12T06:55:44.287Z,10.23
2018-10-12T06:58:13.697Z,6.40
2018-10-12T07:00:42.453Z,12.83
2018-10-12T07:03:10.964Z,14.90
2018-10-12T07:05:39.420Z,22.07
2018-10-12T07:08:08.437Z,11.37
2018-10-12T07:10:37.386Z,8.30
2018-10-12T07:13:06.924Z,8.17
2018-10-12T07:15:35.554Z,12.10
2018-10-12T07:18:04.521Z,13.90
2018-10-12T07:20:34.799Z,10.80
2018-10-12T07:23:05.734Z,11.43
2018-10-12T07:25:34.943Z,15.67
2018-10-12T07:28:04.310Z,31.83
2018-10-12T07:30:32.799Z,13.50
2018-10-12T07:33:02.335Z,10.23
2018-10-12T07:35:30.675Z,12.60
2018-10-12T07:38:00.606Z,9.63
2018-10-12T07:40:28.856Z,10.33
2018-10-12T07:43:07.099Z,11.60
2018-10-12T07:45:37.809Z,9.97
2018-10-12T07:48:08.463Z,12.00
2018-10-12T07:50:37.475Z,10.23
2018-10-12T07:53:06.619Z,5.13
2018-10-12T08:01:17.078Z,8.87
2018-10-12T08:03:46.223Z,6.63
2018-10-12T08:06:15.685Z,5.07
2018-10-12T08:08:46.175Z,8.60
2018-10-12T08:11:15.388Z,9.03
2018-10-12T08:13:44.552Z,5.33
2018-10-12T08:16:19.027Z,33.00
2018-10-12T08:18:47.342Z,9.53
2018-10-12T08:21:16.833Z,11.23
2018-10-12T08:23:45.822Z,5.97
2018-10-12T08:26:14.949Z,10.43
2018-10-12T08:28:48.753Z,6.23
2018-10-12T08:31:21.757Z,8.00
2018-10-12T08:45:15.176Z,7.67
2018-10-12T08:47:44.820Z,5.77
2018-10-12T08:50:14.632Z,5.70
2018-10-12T08:52:43.850Z,4.80
2018-10-12T08:58:02.229Z,10.10
2018-10-12T09:00:31.477Z,4.93
2018-10-12T09:02:59.968Z,11.33
2018-10-12T09:05:28.233Z,15.77
2018-10-12T09:07:56.711Z,5.10
2018-10-12T09:18:31.566Z,11.00
2018-10-12T09:21:05.976Z,8.00
2018-10-12T09:26:18.095Z,4.13
2018-10-12T09:28:55.305Z,5.10
2018-10-12T09:31:27.326Z,8.67
2018-10-12T09:33:56.481Z,9.63
2018-10-12T09:42:19.456Z,7.87
2018-10-12T09:47:33.158Z,7.63
2018-10-12T09:55:27.526Z,13.60
2018-10-12T09:58:03.430Z,9.10
2018-10-12T10:00:37.189Z,8.40
2018-10-12T10:11:24.140Z,6.07
2018-10-12T10:16:49.589Z,5.40
2018-10-12T10:19:19.144Z,8.10
2018-10-12T10:21:47.679Z,7.13
2018-10-12T10:24:18.827Z,4.63
2018-10-12T10:26:48.925Z,5.07
2018-10-12T10:32:26.023Z,4.67
2018-10-12T10:34:54.439Z,5.93
2018-10-12T10:37:36.935Z,5.13
2018-10-12T10:40:06.245Z,6.23
2018-10-12T10:42:36.924Z,6.87
2018-10-12T10:45:07.732Z,4.47
2018-10-12T10:50:29.146Z,7.13
2018-10-12T10:55:40.511Z,5.73
2018-10-12T10:58:09.317Z,10.00
2018-10-12T11:00:45.465Z,8.53
2018-10-12T11:03:14.110Z,5.00
2018-10-12T11:05:42.952Z,10.63
2018-10-12T11:10:57.803Z,6.87
2018-10-12T11:13:37.583Z,5.40
2018-10-12T11:24:54.274Z,11.17
2018-10-12T11:36:31.965Z,5.50
2018-10-12T11:44:56.174Z,6.10
2018-10-12T11:47:25.226Z,3.90
2018-10-12T11:50:07.375Z,8.17
2018-10-12T11:58:05.554Z,35.97
2018-10-12T12:06:47.428Z,13.80
2018-10-12T12:12:17.321Z,3.83
2018-10-12T12:14:52.789Z,5.43
2018-10-12T12:20:38.380Z,4.27
2018-10-12T12:25:54.567Z,5.50
2018-10-12T12:28:29.009Z,9.17
2018-10-12T12:30:57.183Z,4.27
2018-10-12T12:33:25.918Z,12.03
2018-10-12T12:35:55.286Z,6.23
2018-10-12T12:41:07.452Z,7.63
2018-10-12T12:43:37.710Z,4.40
2018-10-12T12:46:07.297Z,4.83
2018-10-12T12:48:37.120Z,3.63
2018-10-12T12:51:05.791Z,5.13
2018-10-12T12:53:44.889Z,4.83
2018-10-12T12:56:13.879Z,7.93
2018-10-12T12:58:47.211Z,6.70
2018-10-12T13:01:22.186Z,6.63
2018-10-12T13:03:51.944Z,5.37
2018-10-12T13:06:25.345Z,9.03
2018-10-12T13:08:55.140Z,11.53
2018-10-12T13:11:33.274Z,5.33
2018-10-12T13:14:07.654Z,7.53
2018-10-12T13:16:41.987Z,8.43
2018-10-12T13:22:06.877Z,7.30
2018-10-12T13:24:36.878Z,3.63
2018-10-12T13:27:07.036Z,5.33
2018-10-12T13:29:38.268Z,15.13
2018-10-12T13:32:07.967Z,21.00
2018-10-12T13:42:49.448Z,5.90
2018-10-12T13:45:24.156Z,3.53
2018-10-12T13:47:52.960Z,6.20
2018-10-12T13:50:28.551Z,5.40
2018-10-12T13:52:57.391Z,8.37
2018-10-12T14:06:30.915Z,18.57
2018-10-12T14:09:06.022Z,4.13
2018-10-12T14:11:35.047Z,7.87
2018-10-12T14:14:06.803Z,4.63
2018-10-12T14:16:39.614Z,7.83
2018-10-12T14:19:09.430Z,7.10
2018-10-12T14:21:38.877Z,6.53
2018-10-12T14:24:08.045Z,7.23
2018-10-12T14:26:36.959Z,3.20
2018-10-12T14:31:51.356Z,5.63
2018-10-12T14:34:23.502Z,10.37
2018-10-12T14:39:53.721Z,6.60
2018-10-12T14:45:14.173Z,7.63
2018-10-12T14:50:32.979Z,4.27
2018-10-12T14:53:07.949Z,5.10
2018-10-12T14:55:39.635Z,7.50
2018-10-12T15:06:28.838Z,12.33
2018-10-12T15:08:58.372Z,8.20
2018-10-12T15:11:32.732Z,3.90
2018-10-12T15:17:09.745Z,11.57
2018-10-12T15:28:02.837Z,8.20
2018-10-12T15:30:31.690Z,6.20
2018-10-12T15:33:00.064Z,5.20
2018-10-12T15:35:29.148Z,10.93
2018-10-12T15:38:08.480Z,9.57
2018-10-12T15:46:09.580Z,4.67
2018-10-12T15:51:22.973Z,7.13
2018-10-12T15:56:38.047Z,5.43
2018-10-12T15:59:35.654Z,5.63
2018-10-12T16:08:01.242Z,9.20
2018-10-12T16:10:36.536Z,7.53
2018-10-12T16:13:06.196Z,9.00
2018-10-12T16:15:35.204Z,10.23
2018-10-12T16:23:57.538Z,10.63
2018-10-12T16:29:14.378Z,8.83
2018-10-12T16:37:20.678Z,7.60
2018-10-12T16:45:41.101Z,12.10
2018-10-12T16:48:14.903Z,13.40
2018-10-12T16:50:47.673Z,6.37
2018-10-12T16:56:01.745Z,8.03
2018-10-12T17:07:45.124Z,7.67
2018-10-12T17:15:48.433Z,18.37
2018-10-12T17:18:23.600Z,13.60
2018-10-12T17:20:52.780Z,10.23
2018-10-12T17:23:21.003Z,12.60
2018-10-12T17:28:31.246Z,13.30
2018-10-12T17:36:36.899Z,9.70
2018-10-12T17:44:40.784Z,20.47
2018-10-12T17:49:52.422Z,11.37
2018-10-12T17:52:20.653Z,18.60
2018-10-12T17:54:49.105Z,30.67
2018-10-12T17:57:17.558Z,12.00
2018-10-12T17:59:46.265Z,10.80
2018-10-12T18:02:14.936Z,14.53
2018-10-12T18:04:43.543Z,27.63
2018-10-12T18:07:12.085Z,23.93
2018-10-12T18:12:34.727Z,14.73
2018-10-12T18:15:03.027Z,14.93
2018-10-12T18:17:31.130Z,14.77
2018-10-12T18:19:59.357Z,19.27
2018-10-12T18:22:27.694Z,12.60
2018-10-12T18:30:25.166Z,18.33
2018-10-12T18:32:53.331Z,22.37
2018-10-12T18:35:21.602Z,17.63
2018-10-12T18:37:50.138Z,18.90
2018-10-12T18:45:41.619Z,17.10
2018-10-12T18:48:09.983Z,25.47
2018-10-12T18:50:39.048Z,23.83
2018-10-12T18:53:07.900Z,16.23
2018-10-12T18:58:15.605Z,16.70
2018-10-12T19:00:44.330Z,13.10
2018-10-12T19:03:12.991Z,18.80
2018-10-12T19:08:23.442Z,19.17
2018-10-12T19:13:33.495Z,24.17
2018-10-12T19:16:06.519Z,23.23
2018-10-12T19:18:39.921Z,27.20
2018-10-12T19:21:08.756Z,18.03
2018-10-12T19:23:38.732Z,20.40
2018-10-12T19:26:12.823Z,27.00
2018-10-12T19:28:50.012Z,24.90
2018-10-12T19:33:59.509Z,18.93
2018-10-12T19:36:27.855Z,18.93
2018-10-12T19:39:07.126Z,12.10
2018-10-12T19:46:56.989Z,23.97
2018-10-12T19:49:35.357Z,18.77
2018-10-12T19:52:05.550Z,21.53
2018-10-12T19:54:34.880Z,19.53
2018-10-12T19:57:04.898Z,18.67
2018-10-12T19:59:38.045Z,19.37
2018-10-12T20:02:12.204Z,18.10
2018-10-12T20:04:48.058Z,21.50
2018-10-12T20:07:22.618Z,27.80
2018-10-12T20:09:51.442Z,22.00
2018-10-12T20:12:19.759Z,23.63
2018-10-12T20:14:48.166Z,23.50
2018-10-12T20:17:17.253Z,18.83
2018-10-12T20:19:45.597Z,30.53
2018-10-12T20:22:16.797Z,21.27
2018-10-12T20:24:45.506Z,28.30
2018-10-12T20:27:17.442Z,20.40
2018-10-12T20:29:45.972Z,30.63
2018-10-12T20:34:51.886Z,21.23
2018-10-12T20:37:20.364Z,31.30
2018-10-12T20:39:48.454Z,20.13
2018-10-12T20:42:16.903Z,21.43
2018-10-12T20:44:46.920Z,25.10
2018-10-12T20:49:54.150Z,24.53
2018-10-12T20:52:23.380Z,28.33
2018-10-12T20:55:00.685Z,32.13
2018-10-12T21:00:10.084Z,26.60
2018-10-12T21:02:39.345Z,24.73
2018-10-12T21:05:08.422Z,28.20
2018-10-12T21:10:18.292Z,23.60
2018-10-12T21:12:46.649Z,24.07
2018-10-12T21:15:17.015Z,23.50
2018-10-12T21:17:46.623Z,24.17
2018-10-12T21:20:15.836Z,17.40
2018-10-12T21:22:45.041Z,23.87
2018-10-12T21:25:13.621Z,25.97
2018-10-12T21:27:43.533Z,22.97
2018-10-12T21:30:12.838Z,31.50
2018-10-12T21:32:44.116Z,19.73
2018-10-12T21:35:12.669Z,23.90
2018-10-12T21:37:42.120Z,36.57
2018-10-12T21:40:10.656Z,25.10
2018-10-12T21:42:40.530Z,26.20
2018-10-12T21:45:09.597Z,25.63
2018-10-12T21:47:38.106Z,21.67
2018-10-12T21:50:06.828Z,20.20
2018-10-12T21:52:35.956Z,20.03
2018-10-12T21:55:08.301Z,20.13
2018-10-12T21:57:36.848Z,20.40
2018-10-12T22:00:07.203Z,16.10
2018-10-12T22:02:36.714Z,23.10
2018-10-12T22:05:07.819Z,15.90
2018-10-12T22:07:41.430Z,22.97
2018-10-12T22:10:09.868Z,16.47
2018-10-12T22:12:39.943Z,21.37
2018-10-12T22:15:08.685Z,21.03
2018-10-12T22:17:37.166Z,21.00
2018-10-12T22:20:06.322Z,28.40
2018-10-12T22:22:35.129Z,26.07
2018-10-12T22:25:04.396Z,21.90
2018-10-12T22:27:32.598Z,21.47
2018-10-12T22:30:00.582Z,25.07
2018-10-12T22:32:28.606Z,17.97
2018-10-12T22:34:56.622Z,20.93
2018-10-12T22:37:25.141Z,19.17
2018-10-12T22:39:53.521Z,22.77
2018-10-12T22:42:23.394Z,17.43
2018-10-12T22:44:52.480Z,21.30
2018-10-12T22:47:20.455Z,25.00
2018-10-12T22:49:48.552Z,23.40
2018-10-12T22:52:17.269Z,25.07
2018-10-12T22:54:45.781Z,22.33
2018-10-12T22:57:14.070Z,23.70
2018-10-12T22:59:42.402Z,23.40
2018-10-12T23:02:14.360Z,21.27
2018-10-12T23:04:45.388Z,23.83
2018-10-12T23:07:14.682Z,15.40
2018-10-12T23:09:45.307Z,24.27
2018-10-12T23:12:13.505Z,21.83
2018-10-12T23:14:41.899Z,21.93
2018-10-12T23:17:10.225Z,21.70
2018-10-12T23:19:39.196Z,19.73
2018-10-12T23:22:08.004Z,19.13
2018-10-12T23:24:37.032Z,22.20
2018-10-12T23:27:06.246Z,23.77
2018-10-12T23:29:35.243Z,31.73
2018-10-12T23:32:03.513Z,23.77
2018-10-12T23:37:07.200Z,35.83
2018-10-12T23:39:37.866Z,29.00
2018-10-12T23:42:07.168Z,19.73
2018-10-12T23:44:35.798Z,23.50
2018-10-12T23:47:05.760Z,18.20
2018-10-12T23:49:34.334Z,25.30
2018-10-12T23:52:03.097Z,24.33
2018-10-12T23:54:31.399Z,16.57
2018-10-12T23:56:59.908Z,19.03
2018-10-12T23:59:32.271Z,22.20
